sensor_id;sensor_type;location;lat;lon;timestamp;P1;durP1;ratioP1;P2;durP2;ratioP2
8574;SDS011;4325;42.520;27.448;2022-08-03T00:01:53;10.90;;;9.70;;
8574;SDS011;4325;42.520;27.448;2022-08-03T00:04:20;11.80;;;9.70;;
8574;SDS011;4325;42.520;27.448;2022-08-03T00:06:47;11.83;;;10.57;;
8574;SDS011;4325;42.520;27.448;2022-08-03T00:09:14;12.07;;;10.60;;
8574;SDS011;4325;42.520;27.448;2022-08-03T00:11:42;12.17;;;11.07;;
8574;SDS011;4325;42.520;27.448;2022-08-03T00:14:09;10.73;;;9.73;;
8574;SDS011;4325;42.520;27.448;2022-08-03T00:16:36;10.70;;;9.80;;
8574;SDS011;4325;42.520;27.448;2022-08-03T00:19:02;11.80;;;10.63;;
8574;SDS011;4325;42.520;27.448;2022-08-03T00:21:30;11.83;;;10.70;;
8574;SDS011;4325;42.520;27.448;2022-08-03T00:23:56;12.87;;;10.20;;
8574;SDS011;4325;42.520;27.448;2022-08-03T00:26:23;11.43;;;10.23;;
8574;SDS011;4325;42.520;27.448;2022-08-03T00:28:51;11.67;;;10.37;;
8574;SDS011;4325;42.520;27.448;2022-08-03T00:31:18;10.67;;;9.77;;
8574;SDS011;4325;42.520;27.448;2022-08-03T00:33:45;12.87;;;10.40;;
8574;SDS011;4325;42.520;27.448;2022-08-03T00:36:12;12.60;;;10.23;;
8574;SDS011;4325;42.520;27.448;2022-08-03T00:38:39;16.30;;;11.40;;
8574;SDS011;4325;42.520;27.448;2022-08-03T00:41:06;10.97;;;9.90;;
8574;SDS011;4325;42.520;27.448;2022-08-03T00:43:32;11.17;;;9.47;;
8574;SDS011;4325;42.520;27.448;2022-08-03T00:46:01;11.53;;;10.43;;
8574;SDS011;4325;42.520;27.448;2022-08-03T00:48:27;10.63;;;9.73;;
8574;SDS011;4325;42.520;27.448;2022-08-03T00:50:54;12.67;;;11.37;;
8574;SDS011;4325;42.520;27.448;2022-08-03T00:53:21;12.17;;;11.07;;
8574;SDS011;4325;42.520;27.448;2022-08-03T00:55:49;13.73;;;12.43;;
8574;SDS011;4325;42.520;27.448;2022-08-03T00:58:16;11.17;;;10.17;;
8574;SDS011;4325;42.520;27.448;2022-08-03T01:00:43;11.23;;;10.10;;
8574;SDS011;4325;42.520;27.448;2022-08-03T01:03:11;10.60;;;9.70;;
8574;SDS011;4325;42.520;27.448;2022-08-03T01:05:41;10.93;;;9.60;;
8574;SDS011;4325;42.520;27.448;2022-08-03T01:08:17;10.37;;;9.47;;
8574;SDS011;4325;42.520;27.448;2022-08-03T01:10:51;11.53;;;10.43;;
8574;SDS011;4325;42.520;27.448;2022-08-03T01:13:35;10.93;;;9.97;;
8574;SDS011;4325;42.520;27.448;2022-08-03T01:16:11;13.97;;;10.60;;
8574;SDS011;4325;42.520;27.448;2022-08-03T01:18:46;11.20;;;10.13;;
8574;SDS011;4325;42.520;27.448;2022-08-03T01:21:19;11.67;;;10.00;;
8574;SDS011;4325;42.520;27.448;2022-08-03T01:23:54;11.17;;;10.07;;
8574;SDS011;4325;42.520;27.448;2022-08-03T01:26:37;11.80;;;9.80;;
8574;SDS011;4325;42.520;27.448;2022-08-03T01:29:30;13.93;;;10.93;;
8574;SDS011;4325;42.520;27.448;2022-08-03T01:32:17;11.50;;;10.37;;
8574;SDS011;4325;42.520;27.448;2022-08-03T01:34:50;12.47;;;11.23;;
8574;SDS011;4325;42.520;27.448;2022-08-03T01:37:21;11.40;;;10.40;;
8574;SDS011;4325;42.520;27.448;2022-08-03T01:39:52;11.23;;;10.13;;
8574;SDS011;4325;42.520;27.448;2022-08-03T01:42:23;11.03;;;10.03;;
8574;SDS011;4325;42.520;27.448;2022-08-03T01:44:53;11.23;;;10.23;;
8574;SDS011;4325;42.520;27.448;2022-08-03T01:47:22;11.77;;;10.77;;
8574;SDS011;4325;42.520;27.448;2022-08-03T01:49:51;12.17;;;10.97;;
8574;SDS011;4325;42.520;27.448;2022-08-03T01:52:20;11.57;;;10.47;;
8574;SDS011;4325;42.520;27.448;2022-08-03T01:54:48;12.43;;;11.13;;
8574;SDS011;4325;42.520;27.448;2022-08-03T01:57:18;11.60;;;10.50;;
8574;SDS011;4325;42.520;27.448;2022-08-03T01:59:48;11.67;;;10.53;;
8574;SDS011;4325;42.520;27.448;2022-08-03T02:02:17;11.47;;;10.33;;
8574;SDS011;4325;42.520;27.448;2022-08-03T02:04:46;12.50;;;11.33;;
8574;SDS011;4325;42.520;27.448;2022-08-03T02:07:14;13.67;;;11.10;;
8574;SDS011;4325;42.520;27.448;2022-08-03T02:09:42;10.97;;;9.97;;
8574;SDS011;4325;42.520;27.448;2022-08-03T02:12:12;12.13;;;10.23;;
8574;SDS011;4325;42.520;27.448;2022-08-03T02:14:40;16.50;;;10.50;;
8574;SDS011;4325;42.520;27.448;2022-08-03T02:17:09;12.20;;;10.93;;
8574;SDS011;4325;42.520;27.448;2022-08-03T02:19:40;12.73;;;11.43;;
8574;SDS011;4325;42.520;27.448;2022-08-03T02:22:09;11.90;;;9.60;;
8574;SDS011;4325;42.520;27.448;2022-08-03T02:24:37;11.07;;;10.07;;
8574;SDS011;4325;42.520;27.448;2022-08-03T02:27:05;13.13;;;11.70;;
8574;SDS011;4325;42.520;27.448;2022-08-03T02:29:37;11.87;;;10.63;;
8574;SDS011;4325;42.520;27.448;2022-08-03T02:32:05;12.77;;;11.47;;
8574;SDS011;4325;42.520;27.448;2022-08-03T02:34:37;12.53;;;11.00;;
8574;SDS011;4325;42.520;27.448;2022-08-03T02:37:07;12.70;;;11.10;;
8574;SDS011;4325;42.520;27.448;2022-08-03T02:39:36;13.13;;;11.67;;
8574;SDS011;4325;42.520;27.448;2022-08-03T02:42:06;11.57;;;10.57;;
8574;SDS011;4325;42.520;27.448;2022-08-03T02:44:34;12.20;;;10.43;;
8574;SDS011;4325;42.520;27.448;2022-08-03T02:47:05;14.17;;;10.40;;
8574;SDS011;4325;42.520;27.448;2022-08-03T02:49:34;10.53;;;9.63;;
8574;SDS011;4325;42.520;27.448;2022-08-03T02:52:03;11.00;;;9.93;;
8574;SDS011;4325;42.520;27.448;2022-08-03T02:54:36;11.00;;;9.90;;
8574;SDS011;4325;42.520;27.448;2022-08-03T02:57:04;10.83;;;9.87;;
8574;SDS011;4325;42.520;27.448;2022-08-03T02:59:34;13.13;;;10.70;;
8574;SDS011;4325;42.520;27.448;2022-08-03T03:02:02;11.87;;;10.77;;
8574;SDS011;4325;42.520;27.448;2022-08-03T03:04:29;11.20;;;9.90;;
8574;SDS011;4325;42.520;27.448;2022-08-03T03:06:56;11.43;;;10.33;;
8574;SDS011;4325;42.520;27.448;2022-08-03T03:09:24;11.77;;;10.67;;
8574;SDS011;4325;42.520;27.448;2022-08-03T03:11:53;10.50;;;9.60;;
8574;SDS011;4325;42.520;27.448;2022-08-03T03:14:21;11.97;;;10.77;;
8574;SDS011;4325;42.520;27.448;2022-08-03T03:16:49;12.20;;;10.90;;
8574;SDS011;4325;42.520;27.448;2022-08-03T03:19:17;14.77;;;10.27;;
8574;SDS011;4325;42.520;27.448;2022-08-03T03:21:46;12.87;;;10.80;;
8574;SDS011;4325;42.520;27.448;2022-08-03T03:24:13;11.57;;;10.57;;
8574;SDS011;4325;42.520;27.448;2022-08-03T03:26:41;13.00;;;11.80;;
8574;SDS011;4325;42.520;27.448;2022-08-03T03:29:10;13.73;;;10.90;;
8574;SDS011;4325;42.520;27.448;2022-08-03T03:31:37;13.80;;;10.87;;
8574;SDS011;4325;42.520;27.448;2022-08-03T03:34:05;12.83;;;11.33;;
8574;SDS011;4325;42.520;27.448;2022-08-03T03:36:32;19.83;;;12.40;;
8574;SDS011;4325;42.520;27.448;2022-08-03T03:38:59;15.43;;;10.93;;
8574;SDS011;4325;42.520;27.448;2022-08-03T03:41:26;13.87;;;11.90;;
8574;SDS011;4325;42.520;27.448;2022-08-03T03:43:53;15.90;;;14.30;;
8574;SDS011;4325;42.520;27.448;2022-08-03T03:46:22;13.90;;;10.70;;
8574;SDS011;4325;42.520;27.448;2022-08-03T03:48:49;10.97;;;9.83;;
8574;SDS011;4325;42.520;27.448;2022-08-03T03:51:16;12.43;;;10.87;;
8574;SDS011;4325;42.520;27.448;2022-08-03T03:53:55;13.53;;;10.17;;
8574;SDS011;4325;42.520;27.448;2022-08-03T03:56:23;12.77;;;11.47;;
8574;SDS011;4325;42.520;27.448;2022-08-03T03:58:50;19.03;;;13.87;;
8574;SDS011;4325;42.520;27.448;2022-08-03T04:01:18;17.40;;;15.63;;
8574;SDS011;4325;42.520;27.448;2022-08-03T04:03:46;14.97;;;12.37;;
8574;SDS011;4325;42.520;27.448;2022-08-03T04:06:13;12.37;;;9.60;;
8574;SDS011;4325;42.520;27.448;2022-08-03T04:08:58;14.80;;;12.90;;
8574;SDS011;4325;42.520;27.448;2022-08-03T04:11:45;12.20;;;10.93;;
8574;SDS011;4325;42.520;27.448;2022-08-03T04:14:16;16.37;;;11.27;;
8574;SDS011;4325;42.520;27.448;2022-08-03T04:16:46;17.77;;;13.17;;
8574;SDS011;4325;42.520;27.448;2022-08-03T04:19:18;17.43;;;14.70;;
8574;SDS011;4325;42.520;27.448;2022-08-03T04:21:52;16.77;;;14.17;;
8574;SDS011;4325;42.520;27.448;2022-08-03T04:24:22;17.93;;;15.77;;
8574;SDS011;4325;42.520;27.448;2022-08-03T04:26:53;13.67;;;12.00;;
8574;SDS011;4325;42.520;27.448;2022-08-03T04:29:22;11.50;;;10.40;;
8574;SDS011;4325;42.520;27.448;2022-08-03T04:31:51;15.70;;;13.00;;
8574;SDS011;4325;42.520;27.448;2022-08-03T04:34:21;14.67;;;10.70;;
8574;SDS011;4325;42.520;27.448;2022-08-03T04:36:48;10.07;;;9.03;;
8574;SDS011;4325;42.520;27.448;2022-08-03T04:39:22;14.23;;;10.60;;
8574;SDS011;4325;42.520;27.448;2022-08-03T04:41:51;10.77;;;9.67;;
8574;SDS011;4325;42.520;27.448;2022-08-03T04:44:20;10.20;;;8.17;;
8574;SDS011;4325;42.520;27.448;2022-08-03T04:46:49;8.60;;;7.60;;
8574;SDS011;4325;42.520;27.448;2022-08-03T04:49:18;8.83;;;7.53;;
8574;SDS011;4325;42.520;27.448;2022-08-03T04:51:47;8.97;;;8.17;;
8574;SDS011;4325;42.520;27.448;2022-08-03T04:54:15;8.10;;;6.97;;
8574;SDS011;4325;42.520;27.448;2022-08-03T04:56:42;10.57;;;5.43;;
8574;SDS011;4325;42.520;27.448;2022-08-03T04:59:09;10.17;;;6.23;;
8574;SDS011;4325;42.520;27.448;2022-08-03T05:01:36;5.50;;;4.90;;
8574;SDS011;4325;42.520;27.448;2022-08-03T05:04:05;7.43;;;4.30;;
8574;SDS011;4325;42.520;27.448;2022-08-03T05:06:32;11.33;;;4.73;;
8574;SDS011;4325;42.520;27.448;2022-08-03T05:09:00;9.60;;;4.67;;
8574;SDS011;4325;42.520;27.448;2022-08-03T05:11:27;5.73;;;4.03;;
8574;SDS011;4325;42.520;27.448;2022-08-03T05:13:54;6.83;;;3.90;;
8574;SDS011;4325;42.520;27.448;2022-08-03T05:16:21;3.93;;;3.50;;
8574;SDS011;4325;42.520;27.448;2022-08-03T05:18:49;3.80;;;3.30;;
8574;SDS011;4325;42.520;27.448;2022-08-03T05:21:16;5.30;;;4.60;;
8574;SDS011;4325;42.520;27.448;2022-08-03T05:23:43;4.80;;;4.40;;
8574;SDS011;4325;42.520;27.448;2022-08-03T05:26:12;12.10;;;4.13;;
8574;SDS011;4325;42.520;27.448;2022-08-03T05:28:39;4.03;;;3.67;;
8574;SDS011;4325;42.520;27.448;2022-08-03T05:31:05;4.33;;;3.93;;
8574;SDS011;4325;42.520;27.448;2022-08-03T05:33:32;5.40;;;3.57;;
8574;SDS011;4325;42.520;27.448;2022-08-03T05:35:59;3.37;;;3.07;;
8574;SDS011;4325;42.520;27.448;2022-08-03T05:38:26;6.27;;;3.83;;
8574;SDS011;4325;42.520;27.448;2022-08-03T05:40:53;4.10;;;3.70;;
8574;SDS011;4325;42.520;27.448;2022-08-03T05:43:21;4.77;;;3.33;;
8574;SDS011;4325;42.520;27.448;2022-08-03T05:45:48;5.73;;;3.57;;
8574;SDS011;4325;42.520;27.448;2022-08-03T05:48:14;7.07;;;3.50;;
8574;SDS011;4325;42.520;27.448;2022-08-03T05:50:41;5.43;;;3.20;;
8574;SDS011;4325;42.520;27.448;2022-08-03T05:53:08;3.43;;;3.13;;
8574;SDS011;4325;42.520;27.448;2022-08-03T05:55:35;5.63;;;3.40;;
8574;SDS011;4325;42.520;27.448;2022-08-03T05:58:02;4.97;;;3.33;;
8574;SDS011;4325;42.520;27.448;2022-08-03T06:00:31;3.60;;;3.30;;
8574;SDS011;4325;42.520;27.448;2022-08-03T06:02:57;3.60;;;3.30;;
8574;SDS011;4325;42.520;27.448;2022-08-03T06:05:24;4.10;;;3.10;;
8574;SDS011;4325;42.520;27.448;2022-08-03T06:07:52;5.57;;;3.40;;
8574;SDS011;4325;42.520;27.448;2022-08-03T06:10:19;7.57;;;3.17;;
8574;SDS011;4325;42.520;27.448;2022-08-03T06:12:46;5.27;;;3.17;;
8574;SDS011;4325;42.520;27.448;2022-08-03T06:15:14;4.23;;;2.70;;
8574;SDS011;4325;42.520;27.448;2022-08-03T06:17:47;10.17;;;3.70;;
8574;SDS011;4325;42.520;27.448;2022-08-03T06:20:15;7.60;;;3.50;;
8574;SDS011;4325;42.520;27.448;2022-08-03T06:22:43;9.33;;;3.00;;
8574;SDS011;4325;42.520;27.448;2022-08-03T06:25:10;5.10;;;3.27;;
8574;SDS011;4325;42.520;27.448;2022-08-03T06:27:37;4.53;;;3.00;;
8574;SDS011;4325;42.520;27.448;2022-08-03T06:30:05;4.43;;;2.80;;
8574;SDS011;4325;42.520;27.448;2022-08-03T06:32:34;4.07;;;3.13;;
8574;SDS011;4325;42.520;27.448;2022-08-03T06:35:03;5.07;;;3.13;;
8574;SDS011;4325;42.520;27.448;2022-08-03T06:37:30;3.10;;;2.90;;
8574;SDS011;4325;42.520;27.448;2022-08-03T06:39:57;8.83;;;2.67;;
8574;SDS011;4325;42.520;27.448;2022-08-03T06:42:24;3.17;;;2.93;;
8574;SDS011;4325;42.520;27.448;2022-08-03T06:44:51;5.23;;;3.30;;
8574;SDS011;4325;42.520;27.448;2022-08-03T06:47:18;4.73;;;3.03;;
8574;SDS011;4325;42.520;27.448;2022-08-03T06:49:45;9.20;;;3.67;;
8574;SDS011;4325;42.520;27.448;2022-08-03T06:52:13;3.27;;;3.00;;
8574;SDS011;4325;42.520;27.448;2022-08-03T06:54:40;4.13;;;3.33;;
8574;SDS011;4325;42.520;27.448;2022-08-03T06:57:07;7.73;;;3.50;;
8574;SDS011;4325;42.520;27.448;2022-08-03T06:59:35;3.00;;;2.80;;
8574;SDS011;4325;42.520;27.448;2022-08-03T07:02:02;4.30;;;3.47;;
8574;SDS011;4325;42.520;27.448;2022-08-03T07:04:29;3.30;;;3.00;;
8574;SDS011;4325;42.520;27.448;2022-08-03T07:06:56;6.60;;;2.70;;
8574;SDS011;4325;42.520;27.448;2022-08-03T07:09:24;7.93;;;3.30;;
8574;SDS011;4325;42.520;27.448;2022-08-03T07:11:52;3.80;;;3.17;;
8574;SDS011;4325;42.520;27.448;2022-08-03T07:14:19;4.30;;;3.13;;
8574;SDS011;4325;42.520;27.448;2022-08-03T07:16:46;4.17;;;2.53;;
8574;SDS011;4325;42.520;27.448;2022-08-03T07:19:13;3.17;;;2.97;;
8574;SDS011;4325;42.520;27.448;2022-08-03T07:21:39;4.10;;;2.60;;
8574;SDS011;4325;42.520;27.448;2022-08-03T07:24:06;3.63;;;2.60;;
8574;SDS011;4325;42.520;27.448;2022-08-03T07:26:35;3.13;;;2.93;;
8574;SDS011;4325;42.520;27.448;2022-08-03T07:29:02;4.10;;;2.83;;
8574;SDS011;4325;42.520;27.448;2022-08-03T07:31:29;4.17;;;2.43;;
8574;SDS011;4325;42.520;27.448;2022-08-03T07:33:56;5.30;;;2.80;;
8574;SDS011;4325;42.520;27.448;2022-08-03T07:36:23;8.90;;;2.80;;
8574;SDS011;4325;42.520;27.448;2022-08-03T07:38:50;3.80;;;2.67;;
8574;SDS011;4325;42.520;27.448;2022-08-03T07:41:17;3.43;;;3.13;;
8574;SDS011;4325;42.520;27.448;2022-08-03T07:43:46;3.17;;;2.87;;
8574;SDS011;4325;42.520;27.448;2022-08-03T07:46:13;4.20;;;2.77;;
8574;SDS011;4325;42.520;27.448;2022-08-03T07:48:40;2.90;;;2.70;;
8574;SDS011;4325;42.520;27.448;2022-08-03T07:51:06;5.93;;;2.87;;
8574;SDS011;4325;42.520;27.448;2022-08-03T07:53:33;6.00;;;3.00;;
8574;SDS011;4325;42.520;27.448;2022-08-03T07:56:00;2.97;;;2.77;;
8574;SDS011;4325;42.520;27.448;2022-08-03T07:58:27;6.60;;;3.33;;
8574;SDS011;4325;42.520;27.448;2022-08-03T08:00:55;5.30;;;2.83;;
8574;SDS011;4325;42.520;27.448;2022-08-03T08:03:22;4.13;;;2.77;;
8574;SDS011;4325;42.520;27.448;2022-08-03T08:05:50;4.60;;;2.80;;
8574;SDS011;4325;42.520;27.448;2022-08-03T08:08:17;10.20;;;2.70;;
8574;SDS011;4325;42.520;27.448;2022-08-03T08:10:45;3.00;;;2.70;;
8574;SDS011;4325;42.520;27.448;2022-08-03T08:13:13;4.37;;;2.80;;
8574;SDS011;4325;42.520;27.448;2022-08-03T08:15:40;2.70;;;2.50;;
8574;SDS011;4325;42.520;27.448;2022-08-03T08:18:08;4.67;;;2.90;;
8574;SDS011;4325;42.520;27.448;2022-08-03T08:20:35;4.73;;;3.20;;
8574;SDS011;4325;42.520;27.448;2022-08-03T08:23:03;4.53;;;3.00;;
8574;SDS011;4325;42.520;27.448;2022-08-03T08:25:32;3.57;;;2.97;;
8574;SDS011;4325;42.520;27.448;2022-08-03T08:27:59;4.00;;;3.60;;
8574;SDS011;4325;42.520;27.448;2022-08-03T08:30:28;5.07;;;3.60;;
8574;SDS011;4325;42.520;27.448;2022-08-03T08:32:56;3.30;;;3.00;;
8574;SDS011;4325;42.520;27.448;2022-08-03T08:35:30;5.03;;;3.47;;
8574;SDS011;4325;42.520;27.448;2022-08-03T08:37:58;3.73;;;3.40;;
8574;SDS011;4325;42.520;27.448;2022-08-03T08:40:25;3.83;;;3.50;;
8574;SDS011;4325;42.520;27.448;2022-08-03T08:42:53;3.57;;;3.27;;
8574;SDS011;4325;42.520;27.448;2022-08-03T08:45:20;3.53;;;3.23;;
8574;SDS011;4325;42.520;27.448;2022-08-03T08:47:47;3.70;;;3.40;;
8574;SDS011;4325;42.520;27.448;2022-08-03T08:50:17;5.60;;;3.53;;
8574;SDS011;4325;42.520;27.448;2022-08-03T08:52:47;4.10;;;3.27;;
8574;SDS011;4325;42.520;27.448;2022-08-03T08:55:17;3.40;;;3.10;;
8574;SDS011;4325;42.520;27.448;2022-08-03T08:57:46;4.55;;;4.15;;
8574;SDS011;4325;42.520;27.448;2022-08-03T09:00:15;5.45;;;3.90;;
8574;SDS011;4325;42.520;27.448;2022-08-03T09:02:43;4.10;;;3.50;;
8574;SDS011;4325;42.520;27.448;2022-08-03T09:05:11;6.40;;;3.20;;
8574;SDS011;4325;42.520;27.448;2022-08-03T09:07:39;12.68;;;3.35;;
8574;SDS011;4325;42.520;27.448;2022-08-03T09:10:09;3.95;;;3.50;;
8574;SDS011;4325;42.520;27.448;2022-08-03T09:12:37;8.70;;;3.38;;
8574;SDS011;4325;42.520;27.448;2022-08-03T09:15:15;4.75;;;3.20;;
8574;SDS011;4325;42.520;27.448;2022-08-03T09:17:47;3.97;;;3.00;;
8574;SDS011;4325;42.520;27.448;2022-08-03T09:20:15;4.65;;;3.10;;
8574;SDS011;4325;42.520;27.448;2022-08-03T09:22:53;3.35;;;2.92;;
8574;SDS011;4325;42.520;27.448;2022-08-03T09:25:32;3.47;;;3.28;;
8574;SDS011;4325;42.520;27.448;2022-08-03T09:28:05;4.20;;;3.25;;
8574;SDS011;4325;42.520;27.448;2022-08-03T09:30:34;4.30;;;3.20;;
8574;SDS011;4325;42.520;27.448;2022-08-03T09:33:02;5.00;;;3.03;;
8574;SDS011;4325;42.520;27.448;2022-08-03T09:35:29;5.97;;;3.40;;
8574;SDS011;4325;42.520;27.448;2022-08-03T09:38:12;3.30;;;3.00;;
8574;SDS011;4325;42.520;27.448;2022-08-03T09:40:42;2.95;;;2.50;;
8574;SDS011;4325;42.520;27.448;2022-08-03T09:43:10;4.57;;;2.97;;
8574;SDS011;4325;42.520;27.448;2022-08-03T09:45:38;2.83;;;2.60;;
8574;SDS011;4325;42.520;27.448;2022-08-03T09:48:22;3.13;;;2.80;;
8574;SDS011;4325;42.520;27.448;2022-08-03T09:50:50;2.25;;;2.00;;
8574;SDS011;4325;42.520;27.448;2022-08-03T09:53:18;2.90;;;2.35;;
8574;SDS011;4325;42.520;27.448;2022-08-03T09:55:50;3.05;;;2.25;;
8574;SDS011;4325;42.520;27.448;2022-08-03T09:58:22;4.10;;;2.40;;
8574;SDS011;4325;42.520;27.448;2022-08-03T10:00:53;2.70;;;2.40;;
8574;SDS011;4325;42.520;27.448;2022-08-03T10:03:24;2.97;;;2.75;;
8574;SDS011;4325;42.520;27.448;2022-08-03T10:05:52;4.20;;;2.33;;
8574;SDS011;4325;42.520;27.448;2022-08-03T10:08:19;2.88;;;2.22;;
8574;SDS011;4325;42.520;27.448;2022-08-03T10:10:47;2.40;;;2.20;;
8574;SDS011;4325;42.520;27.448;2022-08-03T10:13:17;4.35;;;2.70;;
8574;SDS011;4325;42.520;27.448;2022-08-03T10:15:44;3.35;;;2.25;;
8574;SDS011;4325;42.520;27.448;2022-08-03T10:18:11;6.27;;;2.73;;
8574;SDS011;4325;42.520;27.448;2022-08-03T10:20:40;4.70;;;2.55;;
8574;SDS011;4325;42.520;27.448;2022-08-03T10:23:10;7.30;;;3.50;;
8574;SDS011;4325;42.520;27.448;2022-08-03T10:25:40;3.90;;;2.35;;
8574;SDS011;4325;42.520;27.448;2022-08-03T10:28:09;4.07;;;2.60;;
8574;SDS011;4325;42.520;27.448;2022-08-03T10:30:43;8.60;;;2.83;;
8574;SDS011;4325;42.520;27.448;2022-08-03T10:33:14;3.53;;;2.80;;
8574;SDS011;4325;42.520;27.448;2022-08-03T10:35:44;8.02;;;4.60;;
8574;SDS011;4325;42.520;27.448;2022-08-03T10:38:16;4.95;;;2.95;;
8574;SDS011;4325;42.520;27.448;2022-08-03T10:40:45;5.20;;;2.60;;
8574;SDS011;4325;42.520;27.448;2022-08-03T10:43:18;7.43;;;3.40;;
8574;SDS011;4325;42.520;27.448;2022-08-03T10:45:47;4.03;;;2.53;;
8574;SDS011;4325;42.520;27.448;2022-08-03T10:48:15;5.07;;;2.60;;
8574;SDS011;4325;42.520;27.448;2022-08-03T10:50:43;3.10;;;2.80;;
8574;SDS011;4325;42.520;27.448;2022-08-03T10:53:11;4.25;;;2.78;;
8574;SDS011;4325;42.520;27.448;2022-08-03T10:55:38;5.70;;;2.67;;
8574;SDS011;4325;42.520;27.448;2022-08-03T11:01:17;3.83;;;3.13;;
8574;SDS011;4325;42.520;27.448;2022-08-03T11:06:42;3.85;;;2.63;;
8574;SDS011;4325;42.520;27.448;2022-08-03T11:09:13;3.47;;;2.72;;
8574;SDS011;4325;42.520;27.448;2022-08-03T11:11:42;4.13;;;2.45;;
8574;SDS011;4325;42.520;27.448;2022-08-03T11:14:10;3.58;;;2.83;;
8574;SDS011;4325;42.520;27.448;2022-08-03T11:16:40;4.13;;;2.17;;
8574;SDS011;4325;42.520;27.448;2022-08-03T11:19:09;3.70;;;2.55;;
8574;SDS011;4325;42.520;27.448;2022-08-03T11:21:56;3.67;;;2.47;;
8574;SDS011;4325;42.520;27.448;2022-08-03T11:27:31;4.28;;;2.70;;
8574;SDS011;4325;42.520;27.448;2022-08-03T11:30:00;4.40;;;2.95;;
8574;SDS011;4325;42.520;27.448;2022-08-03T11:35:27;5.03;;;2.88;;
8574;SDS011;4325;42.520;27.448;2022-08-03T11:38:02;3.78;;;2.67;;
8574;SDS011;4325;42.520;27.448;2022-08-03T11:40:37;3.70;;;2.70;;
8574;SDS011;4325;42.520;27.448;2022-08-03T11:43:06;3.90;;;2.45;;
8574;SDS011;4325;42.520;27.448;2022-08-03T11:45:34;3.80;;;2.30;;
8574;SDS011;4325;42.520;27.448;2022-08-03T11:48:12;3.58;;;2.45;;
8574;SDS011;4325;42.520;27.448;2022-08-03T11:50:40;2.42;;;2.22;;
8574;SDS011;4325;42.520;27.448;2022-08-03T11:53:13;4.25;;;2.53;;
8574;SDS011;4325;42.520;27.448;2022-08-03T11:55:42;5.97;;;3.22;;
8574;SDS011;4325;42.520;27.448;2022-08-03T11:58:16;2.47;;;2.28;;
8574;SDS011;4325;42.520;27.448;2022-08-03T12:00:44;6.55;;;2.80;;
8574;SDS011;4325;42.520;27.448;2022-08-03T12:03:14;3.33;;;2.83;;
8574;SDS011;4325;42.520;27.448;2022-08-03T12:05:43;3.72;;;2.40;;
8574;SDS011;4325;42.520;27.448;2022-08-03T12:08:12;3.53;;;2.53;;
8574;SDS011;4325;42.520;27.448;2022-08-03T12:10:45;5.73;;;2.60;;
8574;SDS011;4325;42.520;27.448;2022-08-03T12:13:14;2.72;;;2.53;;
8574;SDS011;4325;42.520;27.448;2022-08-03T12:15:41;2.65;;;2.40;;
8574;SDS011;4325;42.520;27.448;2022-08-03T12:18:13;3.00;;;2.50;;
8574;SDS011;4325;42.520;27.448;2022-08-03T12:20:41;6.10;;;2.97;;
8574;SDS011;4325;42.520;27.448;2022-08-03T12:23:09;3.17;;;2.83;;
8574;SDS011;4325;42.520;27.448;2022-08-03T12:25:37;7.00;;;2.87;;
8574;SDS011;4325;42.520;27.448;2022-08-03T12:28:06;5.20;;;2.60;;
8574;SDS011;4325;42.520;27.448;2022-08-03T12:30:34;5.73;;;2.93;;
8574;SDS011;4325;42.520;27.448;2022-08-03T12:33:14;4.80;;;2.70;;
8574;SDS011;4325;42.520;27.448;2022-08-03T12:35:44;5.72;;;2.80;;
8574;SDS011;4325;42.520;27.448;2022-08-03T12:38:12;3.92;;;2.75;;
8574;SDS011;4325;42.520;27.448;2022-08-03T12:40:39;3.63;;;2.50;;
8574;SDS011;4325;42.520;27.448;2022-08-03T12:43:09;6.32;;;2.53;;
8574;SDS011;4325;42.520;27.448;2022-08-03T12:45:37;2.60;;;2.07;;
8574;SDS011;4325;42.520;27.448;2022-08-03T12:48:07;3.83;;;2.70;;
8574;SDS011;4325;42.520;27.448;2022-08-03T12:50:36;3.17;;;2.70;;
8574;SDS011;4325;42.520;27.448;2022-08-03T12:53:06;2.57;;;2.37;;
8574;SDS011;4325;42.520;27.448;2022-08-03T12:55:34;2.70;;;2.50;;
8574;SDS011;4325;42.520;27.448;2022-08-03T12:58:03;3.40;;;2.50;;
8574;SDS011;4325;42.520;27.448;2022-08-03T13:00:31;4.83;;;2.87;;
8574;SDS011;4325;42.520;27.448;2022-08-03T13:02:59;4.40;;;2.77;;
8574;SDS011;4325;42.520;27.448;2022-08-03T13:05:28;7.53;;;2.90;;
8574;SDS011;4325;42.520;27.448;2022-08-03T13:07:57;3.03;;;2.73;;
8574;SDS011;4325;42.520;27.448;2022-08-03T13:10:27;4.73;;;2.73;;
8574;SDS011;4325;42.520;27.448;2022-08-03T13:12:55;5.97;;;3.03;;
8574;SDS011;4325;42.520;27.448;2022-08-03T13:15:24;5.67;;;2.80;;
8574;SDS011;4325;42.520;27.448;2022-08-03T13:17:54;6.70;;;2.67;;
8574;SDS011;4325;42.520;27.448;2022-08-03T13:20:21;2.60;;;2.40;;
8574;SDS011;4325;42.520;27.448;2022-08-03T13:22:48;3.08;;;2.47;;
8574;SDS011;4325;42.520;27.448;2022-08-03T13:25:17;2.60;;;2.40;;
8574;SDS011;4325;42.520;27.448;2022-08-03T13:27:45;4.57;;;2.47;;
8574;SDS011;4325;42.520;27.448;2022-08-03T13:30:12;3.40;;;2.37;;
8574;SDS011;4325;42.520;27.448;2022-08-03T13:32:40;3.07;;;2.30;;
8574;SDS011;4325;42.520;27.448;2022-08-03T13:35:07;2.80;;;2.60;;
8574;SDS011;4325;42.520;27.448;2022-08-03T13:37:35;4.40;;;2.53;;
8574;SDS011;4325;42.520;27.448;2022-08-03T13:40:03;3.70;;;2.67;;
8574;SDS011;4325;42.520;27.448;2022-08-03T13:42:33;3.93;;;3.03;;
8574;SDS011;4325;42.520;27.448;2022-08-03T13:45:03;3.00;;;2.80;;
8574;SDS011;4325;42.520;27.448;2022-08-03T13:47:31;5.37;;;2.93;;
8574;SDS011;4325;42.520;27.448;2022-08-03T13:49:58;3.77;;;2.50;;
8574;SDS011;4325;42.520;27.448;2022-08-03T13:52:25;3.53;;;3.03;;
8574;SDS011;4325;42.520;27.448;2022-08-03T13:54:51;5.93;;;2.80;;
8574;SDS011;4325;42.520;27.448;2022-08-03T13:57:18;2.80;;;2.60;;
8574;SDS011;4325;42.520;27.448;2022-08-03T13:59:46;5.03;;;2.63;;
8574;SDS011;4325;42.520;27.448;2022-08-03T14:02:13;4.40;;;3.17;;
8574;SDS011;4325;42.520;27.448;2022-08-03T14:04:40;4.77;;;2.90;;
8574;SDS011;4325;42.520;27.448;2022-08-03T14:07:07;4.23;;;2.90;;
8574;SDS011;4325;42.520;27.448;2022-08-03T14:09:34;8.60;;;2.93;;
8574;SDS011;4325;42.520;27.448;2022-08-03T14:12:01;7.97;;;2.90;;
8574;SDS011;4325;42.520;27.448;2022-08-03T14:14:28;3.72;;;2.42;;
8574;SDS011;4325;42.520;27.448;2022-08-03T14:16:56;3.83;;;2.58;;
8574;SDS011;4325;42.520;27.448;2022-08-03T14:19:23;4.37;;;2.93;;
8574;SDS011;4325;42.520;27.448;2022-08-03T14:21:49;7.33;;;2.60;;
8574;SDS011;4325;42.520;27.448;2022-08-03T14:24:16;6.90;;;2.87;;
8574;SDS011;4325;42.520;27.448;2022-08-03T14:26:43;6.20;;;2.60;;
8574;SDS011;4325;42.520;27.448;2022-08-03T14:29:10;2.90;;;2.70;;
8574;SDS011;4325;42.520;27.448;2022-08-03T14:31:37;3.60;;;2.43;;
8574;SDS011;4325;42.520;27.448;2022-08-03T14:34:05;10.03;;;2.90;;
8574;SDS011;4325;42.520;27.448;2022-08-03T14:36:32;6.57;;;2.87;;
8574;SDS011;4325;42.520;27.448;2022-08-03T14:38:59;3.47;;;2.83;;
8574;SDS011;4325;42.520;27.448;2022-08-03T14:41:26;10.17;;;3.33;;
8574;SDS011;4325;42.520;27.448;2022-08-03T14:43:52;7.30;;;2.67;;
8574;SDS011;4325;42.520;27.448;2022-08-03T14:46:20;2.97;;;2.70;;
8574;SDS011;4325;42.520;27.448;2022-08-03T14:48:47;4.40;;;2.80;;
8574;SDS011;4325;42.520;27.448;2022-08-03T14:51:16;3.03;;;2.70;;
8574;SDS011;4325;42.520;27.448;2022-08-03T14:53:43;6.73;;;2.60;;
8574;SDS011;4325;42.520;27.448;2022-08-03T14:56:10;8.70;;;2.87;;
8574;SDS011;4325;42.520;27.448;2022-08-03T14:58:37;5.07;;;2.93;;
8574;SDS011;4325;42.520;27.448;2022-08-03T15:01:04;2.67;;;2.40;;
8574;SDS011;4325;42.520;27.448;2022-08-03T15:03:31;3.27;;;2.70;;
8574;SDS011;4325;42.520;27.448;2022-08-03T15:05:58;3.47;;;2.90;;
8574;SDS011;4325;42.520;27.448;2022-08-03T15:08:26;3.57;;;2.87;;
8574;SDS011;4325;42.520;27.448;2022-08-03T15:10:53;5.00;;;2.67;;
8574;SDS011;4325;42.520;27.448;2022-08-03T15:13:21;6.87;;;2.57;;
8574;SDS011;4325;42.520;27.448;2022-08-03T15:15:49;6.60;;;3.00;;